sensor_id;sensor_type;location;lat;lon;timestamp;P1;durP1;ratioP1;P2;durP2;ratioP2
15110;SDS011;7656;51.954;7.998;2023-05-07T00:01:45;7.37;;;5.20;;
15110;SDS011;7656;51.954;7.998;2023-05-07T00:06:06;8.17;;;5.83;;
15110;SDS011;7656;51.954;7.998;2023-05-07T00:10:27;9.33;;;6.30;;
15110;SDS011;7656;51.954;7.998;2023-05-07T00:14:48;7.10;;;6.23;;
15110;SDS011;7656;51.954;7.998;2023-05-07T00:19:09;7.90;;;6.37;;
15110;SDS011;7656;51.954;7.998;2023-05-07T00:23:31;7.63;;;6.83;;
15110;SDS011;7656;51.954;7.998;2023-05-07T00:27:52;7.93;;;7.10;;
15110;SDS011;7656;51.954;7.998;2023-05-07T00:32:13;8.50;;;7.10;;
15110;SDS011;7656;51.954;7.998;2023-05-07T00:36:34;8.80;;;7.00;;
15110;SDS011;7656;51.954;7.998;2023-05-07T00:40:56;9.63;;;7.20;;
15110;SDS011;7656;51.954;7.998;2023-05-07T00:45:17;10.63;;;7.40;;
15110;SDS011;7656;51.954;7.998;2023-05-07T00:49:39;9.37;;;7.53;;
15110;SDS011;7656;51.954;7.998;2023-05-07T00:54:04;9.70;;;7.87;;
15110;SDS011;7656;51.954;7.998;2023-05-07T00:58:26;11.43;;;7.80;;
15110;SDS011;7656;51.954;7.998;2023-05-07T01:02:47;10.37;;;8.67;;
15110;SDS011;7656;51.954;7.998;2023-05-07T01:07:08;13.87;;;9.10;;
15110;SDS011;7656;51.954;7.998;2023-05-07T01:11:30;12.10;;;8.70;;
15110;SDS011;7656;51.954;7.998;2023-05-07T01:15:52;13.40;;;9.83;;
15110;SDS011;7656;51.954;7.998;2023-05-07T01:20:13;10.57;;;8.53;;
15110;SDS011;7656;51.954;7.998;2023-05-07T01:24:36;11.90;;;8.23;;
15110;SDS011;7656;51.954;7.998;2023-05-07T01:28:59;11.27;;;9.47;;
15110;SDS011;7656;51.954;7.998;2023-05-07T01:33:20;12.07;;;9.60;;
15110;SDS011;7656;51.954;7.998;2023-05-07T01:37:42;13.00;;;10.03;;
15110;SDS011;7656;51.954;7.998;2023-05-07T01:42:04;13.33;;;9.70;;
15110;SDS011;7656;51.954;7.998;2023-05-07T01:46:26;11.57;;;9.53;;
15110;SDS011;7656;51.954;7.998;2023-05-07T01:50:48;11.70;;;9.00;;
15110;SDS011;7656;51.954;7.998;2023-05-07T01:55:09;13.33;;;9.87;;
15110;SDS011;7656;51.954;7.998;2023-05-07T01:59:31;12.20;;;9.20;;
15110;SDS011;7656;51.954;7.998;2023-05-07T02:03:52;14.73;;;10.20;;
15110;SDS011;7656;51.954;7.998;2023-05-07T02:08:18;11.67;;;9.70;;
15110;SDS011;7656;51.954;7.998;2023-05-07T02:12:39;13.23;;;10.30;;
15110;SDS011;7656;51.954;7.998;2023-05-07T02:17:00;12.50;;;9.63;;
15110;SDS011;7656;51.954;7.998;2023-05-07T02:21:22;14.17;;;10.00;;
15110;SDS011;7656;51.954;7.998;2023-05-07T02:25:43;12.80;;;10.20;;
15110;SDS011;7656;51.954;7.998;2023-05-07T02:30:04;11.90;;;10.37;;
15110;SDS011;7656;51.954;7.998;2023-05-07T02:34:26;13.33;;;10.50;;
15110;SDS011;7656;51.954;7.998;2023-05-07T02:38:47;13.03;;;9.67;;
15110;SDS011;7656;51.954;7.998;2023-05-07T02:43:09;13.97;;;11.37;;
15110;SDS011;7656;51.954;7.998;2023-05-07T02:47:30;32.03;;;10.40;;
15110;SDS011;7656;51.954;7.998;2023-05-07T02:51:55;14.60;;;10.97;;
15110;SDS011;7656;51.954;7.998;2023-05-07T02:56:18;14.73;;;10.20;;
15110;SDS011;7656;51.954;7.998;2023-05-07T03:00:40;17.27;;;11.10;;
15110;SDS011;7656;51.954;7.998;2023-05-07T03:05:14;14.43;;;10.83;;
15110;SDS011;7656;51.954;7.998;2023-05-07T03:09:35;15.70;;;10.63;;
15110;SDS011;7656;51.954;7.998;2023-05-07T03:13:57;14.13;;;10.87;;
15110;SDS011;7656;51.954;7.998;2023-05-07T03:18:18;14.20;;;10.33;;
15110;SDS011;7656;51.954;7.998;2023-05-07T03:22:40;16.77;;;10.77;;
15110;SDS011;7656;51.954;7.998;2023-05-07T03:27:01;13.17;;;11.07;;
15110;SDS011;7656;51.954;7.998;2023-05-07T03:31:23;16.33;;;10.77;;
15110;SDS011;7656;51.954;7.998;2023-05-07T03:35:44;14.60;;;11.10;;
15110;SDS011;7656;51.954;7.998;2023-05-07T03:40:11;16.23;;;10.90;;
15110;SDS011;7656;51.954;7.998;2023-05-07T03:44:39;13.60;;;10.50;;
15110;SDS011;7656;51.954;7.998;2023-05-07T03:49:00;17.17;;;11.70;;
15110;SDS011;7656;51.954;7.998;2023-05-07T03:53:22;15.83;;;11.50;;
15110;SDS011;7656;51.954;7.998;2023-05-07T03:57:44;16.67;;;11.67;;
15110;SDS011;7656;51.954;7.998;2023-05-07T04:02:05;15.67;;;11.33;;
15110;SDS011;7656;51.954;7.998;2023-05-07T04:06:28;17.37;;;12.43;;
15110;SDS011;7656;51.954;7.998;2023-05-07T04:10:54;13.73;;;10.87;;
15110;SDS011;7656;51.954;7.998;2023-05-07T04:15:17;15.83;;;10.90;;
15110;SDS011;7656;51.954;7.998;2023-05-07T04:19:39;16.37;;;12.10;;
15110;SDS011;7656;51.954;7.998;2023-05-07T04:24:00;17.00;;;12.07;;
15110;SDS011;7656;51.954;7.998;2023-05-07T04:28:24;13.63;;;11.20;;
15110;SDS011;7656;51.954;7.998;2023-05-07T04:32:45;15.87;;;10.87;;
15110;SDS011;7656;51.954;7.998;2023-05-07T04:37:06;14.70;;;11.10;;
15110;SDS011;7656;51.954;7.998;2023-05-07T04:41:28;16.93;;;11.60;;
15110;SDS011;7656;51.954;7.998;2023-05-07T04:45:50;18.07;;;12.23;;
15110;SDS011;7656;51.954;7.998;2023-05-07T04:50:13;16.97;;;11.97;;
15110;SDS011;7656;51.954;7.998;2023-05-07T04:54:35;19.83;;;11.43;;
15110;SDS011;7656;51.954;7.998;2023-05-07T04:58:57;16.10;;;11.23;;
15110;SDS011;7656;51.954;7.998;2023-05-07T05:03:18;13.90;;;11.03;;
15110;SDS011;7656;51.954;7.998;2023-05-07T05:07:39;15.07;;;10.57;;
15110;SDS011;7656;51.954;7.998;2023-05-07T05:12:02;17.50;;;12.43;;
15110;SDS011;7656;51.954;7.998;2023-05-07T05:16:24;16.83;;;12.27;;
15110;SDS011;7656;51.954;7.998;2023-05-07T05:20:45;15.03;;;10.53;;
15110;SDS011;7656;51.954;7.998;2023-05-07T05:25:06;15.83;;;11.27;;
15110;SDS011;7656;51.954;7.998;2023-05-07T05:29:28;17.43;;;11.50;;
15110;SDS011;7656;51.954;7.998;2023-05-07T05:33:49;14.33;;;11.50;;
15110;SDS011;7656;51.954;7.998;2023-05-07T05:38:11;14.40;;;10.77;;
15110;SDS011;7656;51.954;7.998;2023-05-07T05:42:33;15.57;;;11.73;;
15110;SDS011;7656;51.954;7.998;2023-05-07T05:46:55;16.20;;;11.90;;
15110;SDS011;7656;51.954;7.998;2023-05-07T05:51:18;17.50;;;12.00;;
15110;SDS011;7656;51.954;7.998;2023-05-07T05:55:41;17.63;;;12.37;;
15110;SDS011;7656;51.954;7.998;2023-05-07T06:00:03;15.37;;;11.73;;
15110;SDS011;7656;51.954;7.998;2023-05-07T06:04:27;16.73;;;11.57;;
15110;SDS011;7656;51.954;7.998;2023-05-07T06:08:49;15.73;;;11.53;;
15110;SDS011;7656;51.954;7.998;2023-05-07T06:13:15;15.13;;;11.10;;
15110;SDS011;7656;51.954;7.998;2023-05-07T06:17:37;13.97;;;11.30;;
15110;SDS011;7656;51.954;7.998;2023-05-07T06:21:58;13.90;;;10.63;;
15110;SDS011;7656;51.954;7.998;2023-05-07T06:26:23;14.20;;;11.57;;
15110;SDS011;7656;51.954;7.998;2023-05-07T06:30:44;16.17;;;12.23;;
15110;SDS011;7656;51.954;7.998;2023-05-07T06:35:06;18.17;;;12.87;;
15110;SDS011;7656;51.954;7.998;2023-05-07T06:39:31;16.53;;;11.23;;
15110;SDS011;7656;51.954;7.998;2023-05-07T06:43:53;18.17;;;12.27;;
15110;SDS011;7656;51.954;7.998;2023-05-07T06:48:37;16.70;;;11.73;;
15110;SDS011;7656;51.954;7.998;2023-05-07T06:52:59;15.57;;;12.10;;
15110;SDS011;7656;51.954;7.998;2023-05-07T06:57:21;19.13;;;12.80;;
15110;SDS011;7656;51.954;7.998;2023-05-07T07:01:42;16.60;;;12.30;;
15110;SDS011;7656;51.954;7.998;2023-05-07T07:06:04;14.27;;;11.60;;
15110;SDS011;7656;51.954;7.998;2023-05-07T07:10:26;15.10;;;11.43;;
15110;SDS011;7656;51.954;7.998;2023-05-07T07:14:49;15.23;;;11.50;;
15110;SDS011;7656;51.954;7.998;2023-05-07T07:19:10;15.77;;;12.23;;
15110;SDS011;7656;51.954;7.998;2023-05-07T07:23:32;17.53;;;12.17;;
15110;SDS011;7656;51.954;7.998;2023-05-07T07:27:53;17.03;;;11.67;;
15110;SDS011;7656;51.954;7.998;2023-05-07T07:32:16;14.20;;;10.33;;
15110;SDS011;7656;51.954;7.998;2023-05-07T07:36:38;16.60;;;11.90;;
15110;SDS011;7656;51.954;7.998;2023-05-07T07:41:00;15.40;;;10.57;;
15110;SDS011;7656;51.954;7.998;2023-05-07T07:45:23;18.47;;;11.70;;
15110;SDS011;7656;51.954;7.998;2023-05-07T07:49:46;13.97;;;10.80;;
15110;SDS011;7656;51.954;7.998;2023-05-07T07:54:07;13.70;;;11.07;;
15110;SDS011;7656;51.954;7.998;2023-05-07T07:58:29;14.77;;;11.27;;
15110;SDS011;7656;51.954;7.998;2023-05-07T08:02:52;14.53;;;11.40;;
15110;SDS011;7656;51.954;7.998;2023-05-07T08:07:19;15.53;;;11.03;;
15110;SDS011;7656;51.954;7.998;2023-05-07T08:11:42;16.70;;;11.77;;
15110;SDS011;7656;51.954;7.998;2023-05-07T08:16:04;14.53;;;10.67;;
15110;SDS011;7656;51.954;7.998;2023-05-07T08:20:26;14.43;;;9.73;;
15110;SDS011;7656;51.954;7.998;2023-05-07T08:24:48;13.27;;;8.80;;
15110;SDS011;7656;51.954;7.998;2023-05-07T08:29:10;13.83;;;10.10;;
15110;SDS011;7656;51.954;7.998;2023-05-07T08:33:31;13.30;;;10.50;;
15110;SDS011;7656;51.954;7.998;2023-05-07T08:37:53;11.77;;;9.27;;
15110;SDS011;7656;51.954;7.998;2023-05-07T08:42:16;12.70;;;9.30;;
15110;SDS011;7656;51.954;7.998;2023-05-07T08:46:38;11.13;;;8.93;;
15110;SDS011;7656;51.954;7.998;2023-05-07T08:51:01;14.03;;;9.30;;
15110;SDS011;7656;51.954;7.998;2023-05-07T08:55:22;11.87;;;9.03;;
15110;SDS011;7656;51.954;7.998;2023-05-07T08:59:45;14.90;;;9.60;;
15110;SDS011;7656;51.954;7.998;2023-05-07T09:04:06;11.30;;;8.77;;
15110;SDS011;7656;51.954;7.998;2023-05-07T09:08:29;12.17;;;8.50;;
15110;SDS011;7656;51.954;7.998;2023-05-07T09:12:54;12.10;;;9.37;;
15110;SDS011;7656;51.954;7.998;2023-05-07T09:17:15;13.37;;;9.00;;
15110;SDS011;7656;51.954;7.998;2023-05-07T09:21:37;11.83;;;9.30;;
15110;SDS011;7656;51.954;7.998;2023-05-07T09:26:02;9.47;;;7.83;;
15110;SDS011;7656;51.954;7.998;2023-05-07T09:30:28;10.23;;;8.60;;
15110;SDS011;7656;51.954;7.998;2023-05-07T09:34:52;10.40;;;8.30;;
15110;SDS011;7656;51.954;7.998;2023-05-07T09:39:16;10.00;;;7.77;;
15110;SDS011;7656;51.954;7.998;2023-05-07T09:43:39;10.47;;;8.37;;
15110;SDS011;7656;51.954;7.998;2023-05-07T09:48:02;11.90;;;8.00;;
15110;SDS011;7656;51.954;7.998;2023-05-07T09:52:28;10.97;;;8.20;;
15110;SDS011;7656;51.954;7.998;2023-05-07T09:56:55;8.60;;;7.00;;
15110;SDS011;7656;51.954;7.998;2023-05-07T10:01:20;12.33;;;7.57;;
15110;SDS011;7656;51.954;7.998;2023-05-07T10:05:44;9.83;;;7.90;;
15110;SDS011;7656;51.954;7.998;2023-05-07T10:10:08;9.67;;;8.27;;
15110;SDS011;7656;51.954;7.998;2023-05-07T10:14:35;9.90;;;7.63;;
15110;SDS011;7656;51.954;7.998;2023-05-07T10:18:57;9.53;;;7.47;;
15110;SDS011;7656;51.954;7.998;2023-05-07T10:23:22;8.57;;;7.40;;
15110;SDS011;7656;51.954;7.998;2023-05-07T10:27:46;8.47;;;7.20;;
15110;SDS011;7656;51.954;7.998;2023-05-07T10:32:33;8.07;;;7.03;;
15110;SDS011;7656;51.954;7.998;2023-05-07T10:37:04;7.67;;;6.83;;
15110;SDS011;7656;51.954;7.998;2023-05-07T10:41:26;7.90;;;7.10;;
15110;SDS011;7656;51.954;7.998;2023-05-07T10:50:37;8.10;;;6.63;;
15110;SDS011;7656;51.954;7.998;2023-05-07T10:59:43;9.50;;;7.20;;
15110;SDS011;7656;51.954;7.998;2023-05-07T11:04:14;6.55;;;5.85;;
15110;SDS011;7656;51.954;7.998;2023-05-07T11:13:15;9.07;;;6.50;;
15110;SDS011;7656;51.954;7.998;2023-05-07T11:17:58;8.23;;;6.78;;
15110;SDS011;7656;51.954;7.998;2023-05-07T11:27:08;7.65;;;6.50;;
15110;SDS011;7656;51.954;7.998;2023-05-07T11:31:30;12.30;;;6.05;;
15110;SDS011;7656;51.954;7.998;2023-05-07T11:35:55;6.88;;;6.18;;
15110;SDS011;7656;51.954;7.998;2023-05-07T11:40:23;8.43;;;7.00;;
15110;SDS011;7656;51.954;7.998;2023-05-07T11:44:44;6.85;;;5.93;;
15110;SDS011;7656;51.954;7.998;2023-05-07T11:49:06;7.45;;;6.32;;
15110;SDS011;7656;51.954;7.998;2023-05-07T11:53:28;7.45;;;6.40;;
15110;SDS011;7656;51.954;7.998;2023-05-07T11:57:57;8.60;;;6.72;;
15110;SDS011;7656;51.954;7.998;2023-05-07T12:02:19;8.57;;;6.38;;
15110;SDS011;7656;51.954;7.998;2023-05-07T12:06:40;7.78;;;6.60;;
15110;SDS011;7656;51.954;7.998;2023-05-07T12:11:01;8.57;;;6.47;;
15110;SDS011;7656;51.954;7.998;2023-05-07T12:15:22;7.75;;;5.93;;
15110;SDS011;7656;51.954;7.998;2023-05-07T12:19:44;7.30;;;6.35;;
15110;SDS011;7656;51.954;7.998;2023-05-07T12:24:05;8.45;;;6.85;;
15110;SDS011;7656;51.954;7.998;2023-05-07T12:28:26;7.13;;;6.35;;
15110;SDS011;7656;51.954;7.998;2023-05-07T12:32:51;5.85;;;5.25;;
15110;SDS011;7656;51.954;7.998;2023-05-07T12:37:13;7.22;;;5.78;;
15110;SDS011;7656;51.954;7.998;2023-05-07T12:41:53;6.15;;;5.55;;
15110;SDS011;7656;51.954;7.998;2023-05-07T12:46:21;7.22;;;6.53;;
15110;SDS011;7656;51.954;7.998;2023-05-07T12:50:43;8.68;;;6.53;;
15110;SDS011;7656;51.954;7.998;2023-05-07T12:55:05;8.63;;;5.75;;
15110;SDS011;7656;51.954;7.998;2023-05-07T12:59:32;5.97;;;5.32;;
15110;SDS011;7656;51.954;7.998;2023-05-07T13:04:00;8.85;;;5.90;;
15110;SDS011;7656;51.954;7.998;2023-05-07T13:08:24;5.95;;;4.85;;
15110;SDS011;7656;51.954;7.998;2023-05-07T13:12:46;5.93;;;5.32;;
15110;SDS011;7656;51.954;7.998;2023-05-07T13:17:07;5.95;;;4.93;;
15110;SDS011;7656;51.954;7.998;2023-05-07T13:21:29;7.45;;;5.03;;
15110;SDS011;7656;51.954;7.998;2023-05-07T13:25:52;5.60;;;4.72;;
15110;SDS011;7656;51.954;7.998;2023-05-07T13:30:14;6.88;;;5.20;;
15110;SDS011;7656;51.954;7.998;2023-05-07T13:34:35;5.65;;;4.60;;
15110;SDS011;7656;51.954;7.998;2023-05-07T13:38:57;4.97;;;4.45;;
15110;SDS011;7656;51.954;7.998;2023-05-07T13:43:20;4.97;;;4.15;;
15110;SDS011;7656;51.954;7.998;2023-05-07T13:47:41;4.93;;;4.45;;
15110;SDS011;7656;51.954;7.998;2023-05-07T13:52:03;5.45;;;3.85;;
15110;SDS011;7656;51.954;7.998;2023-05-07T13:56:24;4.85;;;4.38;;
15110;SDS011;7656;51.954;7.998;2023-05-07T14:00:45;5.13;;;4.63;;
15110;SDS011;7656;51.954;7.998;2023-05-07T14:05:07;4.93;;;3.47;;
15110;SDS011;7656;51.954;7.998;2023-05-07T14:09:29;4.22;;;3.83;;
15110;SDS011;7656;51.954;7.998;2023-05-07T14:13:50;5.63;;;4.07;;
15110;SDS011;7656;51.954;7.998;2023-05-07T14:18:12;4.95;;;4.50;;
15110;SDS011;7656;51.954;7.998;2023-05-07T14:22:33;5.78;;;4.25;;
15110;SDS011;7656;51.954;7.998;2023-05-07T14:26:54;5.88;;;4.22;;
15110;SDS011;7656;51.954;7.998;2023-05-07T14:31:15;3.90;;;3.50;;
15110;SDS011;7656;51.954;7.998;2023-05-07T14:35:37;4.32;;;3.92;;
15110;SDS011;7656;51.954;7.998;2023-05-07T14:39:58;3.75;;;3.30;;
15110;SDS011;7656;51.954;7.998;2023-05-07T14:44:19;3.88;;;3.58;;
15110;SDS011;7656;51.954;7.998;2023-05-07T14:48:40;7.68;;;3.63;;
15110;SDS011;7656;51.954;7.998;2023-05-07T14:53:02;3.70;;;3.40;;
15110;SDS011;7656;51.954;7.998;2023-05-07T14:57:24;3.60;;;3.30;;
15110;SDS011;7656;51.954;7.998;2023-05-07T15:01:45;4.00;;;3.60;;
15110;SDS011;7656;51.954;7.998;2023-05-07T15:06:07;4.45;;;3.60;;
15110;SDS011;7656;51.954;7.998;2023-05-07T15:10:28;3.53;;;3.22;;
15110;SDS011;7656;51.954;7.998;2023-05-07T15:14:49;3.72;;;3.17;;
15110;SDS011;7656;51.954;7.998;2023-05-07T15:19:10;3.85;;;3.17;;
15110;SDS011;7656;51.954;7.998;2023-05-07T15:23:31;3.33;;;3.03;;
15110;SDS011;7656;51.954;7.998;2023-05-07T15:27:52;3.83;;;3.50;;
15110;SDS011;7656;51.954;7.998;2023-05-07T15:32:13;3.60;;;3.30;;
15110;SDS011;7656;51.954;7.998;2023-05-07T15:36:35;5.97;;;3.30;;
15110;SDS011;7656;51.954;7.998;2023-05-07T15:40:56;4.10;;;3.70;;
15110;SDS011;7656;51.954;7.998;2023-05-07T15:45:17;12.75;;;8.45;;
15110;SDS011;7656;51.954;7.998;2023-05-07T15:49:38;6.90;;;5.63;;
15110;SDS011;7656;51.954;7.998;2023-05-07T15:53:59;4.32;;;3.40;;
15110;SDS011;7656;51.954;7.998;2023-05-07T15:58:20;5.00;;;3.90;;
15110;SDS011;7656;51.954;7.998;2023-05-07T16:02:42;4.22;;;3.80;;
15110;SDS011;7656;51.954;7.998;2023-05-07T16:07:03;4.45;;;4.05;;
15110;SDS011;7656;51.954;7.998;2023-05-07T16:11:24;4.67;;;3.73;;
15110;SDS011;7656;51.954;7.998;2023-05-07T16:15:46;4.00;;;3.60;;
15110;SDS011;7656;51.954;7.998;2023-05-07T16:20:07;4.73;;;4.33;;
15110;SDS011;7656;51.954;7.998;2023-05-07T16:24:32;4.70;;;3.92;;
15110;SDS011;7656;51.954;7.998;2023-05-07T16:28:53;5.53;;;5.00;;
15110;SDS011;7656;51.954;7.998;2023-05-07T16:33:14;8.00;;;6.13;;
15110;SDS011;7656;51.954;7.998;2023-05-07T16:37:35;5.83;;;4.70;;
15110;SDS011;7656;51.954;7.998;2023-05-07T16:41:59;7.47;;;4.97;;
15110;SDS011;7656;51.954;7.998;2023-05-07T16:46:21;7.03;;;5.90;;
15110;SDS011;7656;51.954;7.998;2023-05-07T16:50:42;5.80;;;5.20;;
15110;SDS011;7656;51.954;7.998;2023-05-07T16:55:04;6.67;;;5.43;;
15110;SDS011;7656;51.954;7.998;2023-05-07T16:59:25;6.33;;;5.33;;
15110;SDS011;7656;51.954;7.998;2023-05-07T17:03:50;6.10;;;5.50;;
15110;SDS011;7656;51.954;7.998;2023-05-07T17:08:12;6.80;;;5.40;;
15110;SDS011;7656;51.954;7.998;2023-05-07T17:12:33;6.80;;;5.60;;
15110;SDS011;7656;51.954;7.998;2023-05-07T17:16:55;5.63;;;5.13;;
15110;SDS011;7656;51.954;7.998;2023-05-07T17:21:16;5.33;;;4.63;;
15110;SDS011;7656;51.954;7.998;2023-05-07T17:25:37;6.77;;;5.77;;
15110;SDS011;7656;51.954;7.998;2023-05-07T17:29:58;6.10;;;5.50;;
15110;SDS011;7656;51.954;7.998;2023-05-07T17:34:20;6.33;;;5.73;;
15110;SDS011;7656;51.954;7.998;2023-05-07T17:38:42;7.97;;;5.70;;
15110;SDS011;7656;51.954;7.998;2023-05-07T17:43:03;6.03;;;5.20;;
15110;SDS011;7656;51.954;7.998;2023-05-07T17:47:24;6.07;;;5.23;;
15110;SDS011;7656;51.954;7.998;2023-05-07T17:51:45;5.83;;;5.23;;
15110;SDS011;7656;51.954;7.998;2023-05-07T17:56:07;6.67;;;5.93;;
15110;SDS011;7656;51.954;7.998;2023-05-07T18:00:29;5.97;;;5.20;;
15110;SDS011;7656;51.954;7.998;2023-05-07T18:04:50;8.07;;;5.77;;
15110;SDS011;7656;51.954;7.998;2023-05-07T18:09:11;5.90;;;5.30;;
15110;SDS011;7656;51.954;7.998;2023-05-07T18:13:32;6.30;;;5.70;;
15110;SDS011;7656;51.954;7.998;2023-05-07T18:17:53;6.43;;;5.83;;
15110;SDS011;7656;51.954;7.998;2023-05-07T18:22:14;6.10;;;5.47;;
15110;SDS011;7656;51.954;7.998;2023-05-07T18:26:35;6.00;;;5.40;;
15110;SDS011;7656;51.954;7.998;2023-05-07T18:30:56;7.03;;;5.80;;
15110;SDS011;7656;51.954;7.998;2023-05-07T18:35:18;6.00;;;5.43;;
15110;SDS011;7656;51.954;7.998;2023-05-07T18:39:39;6.97;;;5.10;;
15110;SDS011;7656;51.954;7.998;2023-05-07T18:44:00;6.33;;;5.40;;
15110;SDS011;7656;51.954;7.998;2023-05-07T18:48:21;6.13;;;5.53;;
15110;SDS011;7656;51.954;7.998;2023-05-07T18:52:42;7.53;;;5.90;;
15110;SDS011;7656;51.954;7.998;2023-05-07T18:57:03;5.93;;;5.00;;
15110;SDS011;7656;51.954;7.998;2023-05-07T19:01:24;6.13;;;4.87;;
15110;SDS011;7656;51.954;7.998;2023-05-07T19:05:45;6.20;;;5.60;;
15110;SDS011;7656;51.954;7.998;2023-05-07T19:10:07;6.47;;;5.57;;
15110;SDS011;7656;51.954;7.998;2023-05-07T19:14:28;7.87;;;7.07;;
15110;SDS011;7656;51.954;7.998;2023-05-07T19:18:50;7.73;;;6.63;;
15110;SDS011;7656;51.954;7.998;2023-05-07T19:23:11;6.13;;;5.53;;
15110;SDS011;7656;51.954;7.998;2023-05-07T19:27:32;5.27;;;4.77;;
15110;SDS011;7656;51.954;7.998;2023-05-07T19:31:53;5.77;;;5.13;;
15110;SDS011;7656;51.954;7.998;2023-05-07T19:36:14;6.00;;;5.40;;
15110;SDS011;7656;51.954;7.998;2023-05-07T19:40:36;5.77;;;5.17;;
15110;SDS011;7656;51.954;7.998;2023-05-07T19:44:57;5.73;;;5.23;;
15110;SDS011;7656;51.954;7.998;2023-05-07T19:49:19;6.90;;;5.83;;
15110;SDS011;7656;51.954;7.998;2023-05-07T19:53:40;6.20;;;5.60;;
15110;SDS011;7656;51.954;7.998;2023-05-07T19:58:01;5.50;;;5.00;;
15110;SDS011;7656;51.954;7.998;2023-05-07T20:02:22;6.47;;;5.77;;
15110;SDS011;7656;51.954;7.998;2023-05-07T20:06:44;6.63;;;5.57;;
15110;SDS011;7656;51.954;7.998;2023-05-07T20:11:05;7.87;;;6.33;;
15110;SDS011;7656;51.954;7.998;2023-05-07T20:15:26;6.20;;;5.60;;
15110;SDS011;7656;51.954;7.998;2023-05-07T20:19:47;6.10;;;5.50;;
15110;SDS011;7656;51.954;7.998;2023-05-07T20:24:08;6.53;;;5.73;;
15110;SDS011;7656;51.954;7.998;2023-05-07T20:28:30;6.67;;;5.70;;
15110;SDS011;7656;51.954;7.998;2023-05-07T20:32:51;6.17;;;5.63;;
15110;SDS011;7656;51.954;7.998;2023-05-07T20:37:12;6.20;;;5.60;;
15110;SDS011;7656;51.954;7.998;2023-05-07T20:41:35;5.93;;;5.40;;
15110;SDS011;7656;51.954;7.998;2023-05-07T20:45:59;6.37;;;5.77;;
15110;SDS011;7656;51.954;7.998;2023-05-07T20:50:22;8.83;;;7.50;;
15110;SDS011;7656;51.954;7.998;2023-05-07T20:54:46;10.27;;;8.23;;
15110;SDS011;7656;51.954;7.998;2023-05-07T20:59:09;13.00;;;8.37;;
15110;SDS011;7656;51.954;7.998;2023-05-07T21:03:30;9.47;;;7.70;;
15110;SDS011;7656;51.954;7.998;2023-05-07T21:07:52;8.83;;;7.93;;
15110;SDS011;7656;51.954;7.998;2023-05-07T21:12:13;10.23;;;7.67;;
15110;SDS011;7656;51.954;7.998;2023-05-07T21:16:34;8.73;;;7.60;;
15110;SDS011;7656;51.954;7.998;2023-05-07T21:20:55;8.57;;;7.27;;
15110;SDS011;7656;51.954;7.998;2023-05-07T21:25:17;11.60;;;8.90;;
15110;SDS011;7656;51.954;7.998;2023-05-07T21:29:37;7.87;;;7.00;;
15110;SDS011;7656;51.954;7.998;2023-05-07T21:33:59;9.07;;;7.70;;
15110;SDS011;7656;51.954;7.998;2023-05-07T21:38:20;9.80;;;7.57;;
15110;SDS011;7656;51.954;7.998;2023-05-07T21:42:41;8.37;;;7.47;;
15110;SDS011;7656;51.954;7.998;2023-05-07T21:47:02;7.87;;;7.07;;
15110;SDS011;7656;51.954;7.998;2023-05-07T21:51:23;7.33;;;6.17;;
15110;SDS011;7656;51.954;7.998;2023-05-07T21:55:44;8.50;;;6.60;;
15110;SDS011;7656;51.954;7.998;2023-05-07T22:00:06;8.63;;;5.80;;
15110;SDS011;7656;51.954;7.998;2023-05-07T22:04:28;6.90;;;6.20;;
15110;SDS011;7656;51.954;7.998;2023-05-07T22:08:49;6.17;;;5.57;;
15110;SDS011;7656;51.954;7.998;2023-05-07T22:13:10;7.43;;;5.73;;
15110;SDS011;7656;51.954;7.998;2023-05-07T22:17:32;6.23;;;5.50;;
15110;SDS011;7656;51.954;7.998;2023-05-07T22:21:53;7.37;;;6.43;;
15110;SDS011;7656;51.954;7.998;2023-05-07T22:26:14;5.87;;;5.27;;
15110;SDS011;7656;51.954;7.998;2023-05-07T22:30:35;6.00;;;5.40;;
15110;SDS011;7656;51.954;7.998;2023-05-07T22:34:56;6.87;;;5.93;;
15110;SDS011;7656;51.954;7.998;2023-05-07T22:39:17;6.57;;;5.33;;
15110;SDS011;7656;51.954;7.998;2023-05-07T22:43:39;7.00;;;5.53;;
15110;SDS011;7656;51.954;7.998;2023-05-07T22:48:00;5.63;;;5.07;;
15110;SDS011;7656;51.954;7.998;2023-05-07T22:52:21;6.80;;;5.20;;
15110;SDS011;7656;51.954;7.998;2023-05-07T22:56:42;5.67;;;5.10;;
15110;SDS011;7656;51.954;7.998;2023-05-07T23:01:09;6.67;;;5.50;;
15110;SDS011;7656;51.954;7.998;2023-05-07T23:05:35;6.43;;;5.83;;
15110;SDS011;7656;51.954;7.998;2023-05-07T23:09:56;6.53;;;5.20;;
15110;SDS011;7656;51.954;7.998;2023-05-07T23:14:17;6.73;;;5.20;;
15110;SDS011;7656;51.954;7.998;2023-05-07T23:18:38;6.33;;;5.43;;
15110;SDS011;7656;51.954;7.998;2023-05-07T23:22:59;6.57;;;5.70;;
15110;SDS011;7656;51.954;7.998;2023-05-07T23:27:21;7.30;;;5.37;;
15110;SDS011;7656;51.954;7.998;2023-05-07T23:31:42;7.13;;;5.63;;
15110;SDS011;7656;51.954;7.998;2023-05-07T23:36:03;5.40;;;4.73;;
15110;SDS011;7656;51.954;7.998;2023-05-07T23:40:26;6.37;;;5.63;;
15110;SDS011;7656;51.954;7.998;2023-05-07T23:44:47;6.27;;;5.67;;
15110;SDS011;7656;51.954;7.998;2023-05-07T23:49:09;6.07;;;5.47;;
15110;SDS011;7656;51.954;7.998;2023-05-07T23:53:30;5.80;;;5.20;;
15110;SDS011;7656;51.954;7.998;2023-05-07T23:57:51;9.40;;;5.60;;
